sensor_id;sensor_type;location;lat;lon;timestamp;pressure;altitude;pressure_sealevel;temperature;humidity
40954;BME280;26686;50.130;8.710;2022-10-16T00:01:23;99876.66;;;16.24;100.00
40954;BME280;26686;50.130;8.710;2022-10-16T00:06:25;99876.50;;;16.25;100.00
40954;BME280;26686;50.130;8.710;2022-10-16T00:11:30;99867.44;;;16.26;100.00
40954;BME280;26686;50.130;8.710;2022-10-16T00:16:31;99856.66;;;16.35;100.00
40954;BME280;26686;50.130;8.710;2022-10-16T00:21:33;99851.97;;;16.37;100.00
40954;BME280;26686;50.130;8.710;2022-10-16T00:26:36;99861.38;;;16.41;100.00
40954;BME280;26686;50.130;8.710;2022-10-16T00:31:37;99872.97;;;16.41;100.00
40954;BME280;26686;50.130;8.710;2022-10-16T00:36:38;99881.19;;;16.40;100.00
40954;BME280;26686;50.130;8.710;2022-10-16T00:41:40;99864.06;;;16.41;100.00
40954;BME280;26686;50.130;8.710;2022-10-16T00:46:42;99870.44;;;16.40;100.00
40954;BME280;26686;50.130;8.710;2022-10-16T00:51:47;99867.09;;;16.38;100.00
40954;BME280;26686;50.130;8.710;2022-10-16T00:56:49;99863.03;;;16.42;100.00
40954;BME280;26686;50.130;8.710;2022-10-16T01:01:52;99870.78;;;16.37;100.00
40954;BME280;26686;50.130;8.710;2022-10-16T01:07:09;99871.28;;;16.40;100.00
40954;BME280;26686;50.130;8.710;2022-10-16T01:12:30;99883.22;;;16.38;100.00
40954;BME280;26686;50.130;8.710;2022-10-16T01:17:51;99890.75;;;16.42;100.00
40954;BME280;26686;50.130;8.710;2022-10-16T01:28:01;99907.53;;;16.44;100.00
40954;BME280;26686;50.130;8.710;2022-10-16T01:38:34;99885.03;;;16.46;100.00
40954;BME280;26686;50.130;8.710;2022-10-16T01:43:41;99871.78;;;16.44;100.00
40954;BME280;26686;50.130;8.710;2022-10-16T01:48:45;99878.81;;;16.45;100.00
40954;BME280;26686;50.130;8.710;2022-10-16T01:53:55;99880.31;;;16.48;100.00
40954;BME280;26686;50.130;8.710;2022-10-16T01:59:07;99902.00;;;16.46;100.00
40954;BME280;26686;50.130;8.710;2022-10-16T02:04:47;99905.00;;;16.35;100.00
40954;BME280;26686;50.130;8.710;2022-10-16T02:09:50;99905.22;;;16.25;100.00
40954;BME280;26686;50.130;8.710;2022-10-16T02:14:51;99899.00;;;16.24;100.00
40954;BME280;26686;50.130;8.710;2022-10-16T02:19:54;99912.59;;;16.15;100.00
40954;BME280;26686;50.130;8.710;2022-10-16T02:25:15;99928.72;;;16.06;100.00
40954;BME280;26686;50.130;8.710;2022-10-16T02:30:32;99925.00;;;16.07;100.00
40954;BME280;26686;50.130;8.710;2022-10-16T02:35:36;99915.13;;;16.08;100.00
40954;BME280;26686;50.130;8.710;2022-10-16T02:40:38;99913.94;;;16.11;100.00
40954;BME280;26686;50.130;8.710;2022-10-16T02:45:40;99915.13;;;16.08;100.00
40954;BME280;26686;50.130;8.710;2022-10-16T02:50:42;99919.97;;;16.04;100.00
40954;BME280;26686;50.130;8.710;2022-10-16T02:55:43;99919.97;;;16.04;100.00
40954;BME280;26686;50.130;8.710;2022-10-16T03:00:44;99927.50;;;16.09;100.00
40954;BME280;26686;50.130;8.710;2022-10-16T03:05:45;99918.97;;;16.05;100.00
40954;BME280;26686;50.130;8.710;2022-10-16T03:10:47;99937.94;;;16.04;100.00
40954;BME280;26686;50.130;8.710;2022-10-16T03:15:48;99941.78;;;16.01;100.00
40954;BME280;26686;50.130;8.710;2022-10-16T03:20:49;99934.09;;;16.06;100.00
40954;BME280;26686;50.130;8.710;2022-10-16T03:25:50;99940.63;;;16.04;100.00
40954;BME280;26686;50.130;8.710;2022-10-16T03:30:52;99947.31;;;16.00;100.00
40954;BME280;26686;50.130;8.710;2022-10-16T03:35:54;99959.03;;;15.99;100.00
40954;BME280;26686;50.130;8.710;2022-10-16T03:40:55;99941.28;;;15.98;100.00
40954;BME280;26686;50.130;8.710;2022-10-16T03:45:57;99954.69;;;16.06;100.00
40954;BME280;26686;50.130;8.710;2022-10-16T03:50:58;99981.53;;;16.06;100.00
40954;BME280;26686;50.130;8.710;2022-10-16T03:55:59;99965.28;;;16.07;100.00
40954;BME280;26686;50.130;8.710;2022-10-16T04:01:01;99954.69;;;16.06;100.00
40954;BME280;26686;50.130;8.710;2022-10-16T04:06:02;99959.72;;;16.09;100.00
40954;BME280;26686;50.130;8.710;2022-10-16T04:11:04;99953.19;;;16.12;100.00
40954;BME280;26686;50.130;8.710;2022-10-16T04:16:05;99955.03;;;16.19;100.00
40954;BME280;26686;50.130;8.710;2022-10-16T04:21:07;99963.47;;;16.24;100.00
40954;BME280;26686;50.130;8.710;2022-10-16T04:26:08;99981.22;;;16.25;100.00
40954;BME280;26686;50.130;8.710;2022-10-16T04:31:11;99981.91;;;16.28;100.00
40954;BME280;26686;50.130;8.710;2022-10-16T04:36:12;99976.19;;;16.22;100.00
40954;BME280;26686;50.130;8.710;2022-10-16T04:41:14;99975.19;;;16.23;100.00
40954;BME280;26686;50.130;8.710;2022-10-16T04:46:15;99984.59;;;16.28;100.00
40954;BME280;26686;50.130;8.710;2022-10-16T04:51:16;99989.63;;;16.31;100.00
40954;BME280;26686;50.130;8.710;2022-10-16T04:56:19;99978.53;;;16.25;100.00
40954;BME280;26686;50.130;8.710;2022-10-16T05:01:21;99970.16;;;16.29;100.00
40954;BME280;26686;50.130;8.710;2022-10-16T05:06:23;99979.06;;;16.37;100.00
40954;BME280;26686;50.130;8.710;2022-10-16T05:11:24;99987.09;;;16.37;100.00
40954;BME280;26686;50.130;8.710;2022-10-16T05:16:25;99983.91;;;16.42;100.00
40954;BME280;26686;50.130;8.710;2022-10-16T05:21:27;99996.84;;;16.38;100.00
40954;BME280;26686;50.130;8.710;2022-10-16T05:26:28;99999.88;;;16.35;100.00
40954;BME280;26686;50.130;8.710;2022-10-16T05:31:29;100005.41;;;16.34;100.00
40954;BME280;26686;50.130;8.710;2022-10-16T05:36:31;99990.31;;;16.33;100.00
40954;BME280;26686;50.130;8.710;2022-10-16T05:41:32;99972.50;;;16.32;100.00
40954;BME280;26686;50.130;8.710;2022-10-16T05:46:33;99978.56;;;16.34;100.00
40954;BME280;26686;50.130;8.710;2022-10-16T05:51:34;99994.00;;;16.40;100.00
40954;BME280;26686;50.130;8.710;2022-10-16T05:56:36;100002.38;;;16.45;100.00
40954;BME280;26686;50.130;8.710;2022-10-16T06:01:37;100017.81;;;16.51;100.00
40954;BME280;26686;50.130;8.710;2022-10-16T06:06:38;100022.38;;;16.51;100.00
40954;BME280;26686;50.130;8.710;2022-10-16T06:11:40;100030.09;;;16.46;100.00
40954;BME280;26686;50.130;8.710;2022-10-16T06:16:41;100036.66;;;16.43;100.00
40954;BME280;26686;50.130;8.710;2022-10-16T06:21:43;100037.63;;;16.42;100.00
40954;BME280;26686;50.130;8.710;2022-10-16T06:26:44;100043.34;;;16.39;100.00
40954;BME280;26686;50.130;8.710;2022-10-16T06:31:45;100046.03;;;16.31;100.00
40954;BME280;26686;50.130;8.710;2022-10-16T06:36:46;100053.09;;;16.40;100.00
40954;BME280;26686;50.130;8.710;2022-10-16T06:41:48;100056.63;;;16.49;100.00
40954;BME280;26686;50.130;8.710;2022-10-16T06:46:50;100047.53;;;16.50;100.00
40954;BME280;26686;50.130;8.710;2022-10-16T06:51:52;100043.53;;;16.54;100.00
40954;BME280;26686;50.130;8.710;2022-10-16T06:56:53;100050.25;;;16.58;100.00
40954;BME280;26686;50.130;8.710;2022-10-16T07:01:55;100071.91;;;16.65;100.00
40954;BME280;26686;50.130;8.710;2022-10-16T07:06:57;100071.56;;;16.68;100.00
40954;BME280;26686;50.130;8.710;2022-10-16T07:11:58;100073.59;;;16.66;100.00
40954;BME280;26686;50.130;8.710;2022-10-16T07:16:59;100084.84;;;16.69;100.00
40954;BME280;26686;50.130;8.710;2022-10-16T07:22:00;100084.69;;;16.79;100.00
40954;BME280;26686;50.130;8.710;2022-10-16T07:27:02;100091.78;;;16.88;100.00
40954;BME280;26686;50.130;8.710;2022-10-16T07:32:03;100100.13;;;16.85;100.00
40954;BME280;26686;50.130;8.710;2022-10-16T07:37:05;100121.16;;;16.82;100.00
40954;BME280;26686;50.130;8.710;2022-10-16T07:42:06;100123.66;;;16.83;100.00
40954;BME280;26686;50.130;8.710;2022-10-16T07:47:08;100142.50;;;16.91;100.00
40954;BME280;26686;50.130;8.710;2022-10-16T07:52:10;100155.47;;;16.88;100.00
40954;BME280;26686;50.130;8.710;2022-10-16T07:57:11;100148.88;;;16.82;100.00
40954;BME280;26686;50.130;8.710;2022-10-16T08:02:13;100146.53;;;17.04;100.00
40954;BME280;26686;50.130;8.710;2022-10-16T08:07:14;100163.03;;;17.09;100.00
40954;BME280;26686;50.130;8.710;2022-10-16T08:12:15;100182.50;;;16.94;100.00
40954;BME280;26686;50.130;8.710;2022-10-16T08:17:16;100185.84;;;16.88;100.00
40954;BME280;26686;50.130;8.710;2022-10-16T08:22:18;100188.56;;;16.96;100.00
40954;BME280;26686;50.130;8.710;2022-10-16T08:27:19;100187.22;;;17.09;100.00
40954;BME280;26686;50.130;8.710;2022-10-16T08:32:20;100195.63;;;17.14;100.00
40954;BME280;26686;50.130;8.710;2022-10-16T08:37:31;100211.75;;;17.14;100.00
40954;BME280;26686;50.130;8.710;2022-10-16T08:53:03;100228.25;;;17.27;100.00
40954;BME280;26686;50.130;8.710;2022-10-16T08:58:23;100233.94;;;17.24;100.00
40954;BME280;26686;50.130;8.710;2022-10-16T09:04:01;100242.03;;;17.24;100.00
40954;BME280;26686;50.130;8.710;2022-10-16T09:14:28;100255.94;;;16.95;100.00
40954;BME280;26686;50.130;8.710;2022-10-16T09:19:44;100251.44;;;17.12;100.00
40954;BME280;26686;50.130;8.710;2022-10-16T09:24:47;100263.22;;;17.19;100.00
40954;BME280;26686;50.130;8.710;2022-10-16T09:29:49;100279.19;;;17.21;100.00
40954;BME280;26686;50.130;8.710;2022-10-16T09:34:52;100294.13;;;17.23;100.00
40954;BME280;26686;50.130;8.710;2022-10-16T09:39:55;100293.81;;;17.18;100.00
40954;BME280;26686;50.130;8.710;2022-10-16T09:44:57;100305.56;;;17.09;100.00
40954;BME280;26686;50.130;8.710;2022-10-16T09:50:01;100307.88;;;17.04;100.00
40954;BME280;26686;50.130;8.710;2022-10-16T09:55:17;100297.97;;;17.12;100.00
40954;BME280;26686;50.130;8.710;2022-10-16T10:00:20;100300.53;;;17.22;100.00
40954;BME280;26686;50.130;8.710;2022-10-16T10:05:22;100314.34;;;17.36;100.00
40954;BME280;26686;50.130;8.710;2022-10-16T10:10:28;100318.38;;;17.40;100.00
40954;BME280;26686;50.130;8.710;2022-10-16T10:15:34;100312.00;;;17.65;100.00
40954;BME280;26686;50.130;8.710;2022-10-16T10:20:37;100302.66;;;18.42;100.00
40954;BME280;26686;50.130;8.710;2022-10-16T10:25:53;100309.34;;;19.25;96.20
40954;BME280;26686;50.130;8.710;2022-10-16T10:31:06;100301.91;;;20.27;84.52
40954;BME280;26686;50.130;8.710;2022-10-16T10:36:36;100304.22;;;20.30;83.15
40954;BME280;26686;50.130;8.710;2022-10-16T10:46:56;100298.72;;;20.38;86.54
40954;BME280;26686;50.130;8.710;2022-10-16T10:52:13;100297.28;;;21.02;82.74
40954;BME280;26686;50.130;8.710;2022-10-16T11:02:59;100295.19;;;26.78;56.44
40954;BME280;26686;50.130;8.710;2022-10-16T11:08:29;100289.38;;;31.35;42.25
40954;BME280;26686;50.130;8.710;2022-10-16T11:13:40;100278.91;;;33.50;38.21
40954;BME280;26686;50.130;8.710;2022-10-16T11:24:35;100267.88;;;37.01;32.46
40954;BME280;26686;50.130;8.710;2022-10-16T11:29:45;100254.34;;;37.32;31.44
40954;BME280;26686;50.130;8.710;2022-10-16T11:34:56;100270.38;;;34.63;33.32
40954;BME280;26686;50.130;8.710;2022-10-16T11:40:11;100262.56;;;37.19;30.41
40954;BME280;26686;50.130;8.710;2022-10-16T11:45:29;100261.09;;;32.68;36.71
40954;BME280;26686;50.130;8.710;2022-10-16T11:50:42;100267.50;;;28.01;46.44
40954;BME280;26686;50.130;8.710;2022-10-16T11:55:45;100273.28;;;24.38;57.63
40954;BME280;26686;50.130;8.710;2022-10-16T12:00:55;100265.81;;;23.79;61.43
40954;BME280;26686;50.130;8.710;2022-10-16T12:16:24;100268.69;;;34.77;34.24
40954;BME280;26686;50.130;8.710;2022-10-16T12:21:30;100262.03;;;36.59;30.42
40954;BME280;26686;50.130;8.710;2022-10-16T12:26:38;100261.50;;;33.75;34.25
40954;BME280;26686;50.130;8.710;2022-10-16T12:31:45;100248.56;;;33.39;36.13
40954;BME280;26686;50.130;8.710;2022-10-16T12:37:09;100262.03;;;38.43;28.93
40954;BME280;26686;50.130;8.710;2022-10-16T12:52:39;100261.41;;;34.92;30.79
40954;BME280;26686;50.130;8.710;2022-10-16T12:58:08;100268.91;;;34.10;33.76
40954;BME280;26686;50.130;8.710;2022-10-16T13:08:35;100261.75;;;30.26;40.53
40954;BME280;26686;50.130;8.710;2022-10-16T13:14:24;100267.81;;;31.87;38.10
40954;BME280;26686;50.130;8.710;2022-10-16T13:19:30;100276.50;;;28.13;44.41
40954;BME280;26686;50.130;8.710;2022-10-16T13:30:01;100274.69;;;24.60;55.46
40954;BME280;26686;50.130;8.710;2022-10-16T13:35:03;100271.91;;;24.02;58.64
40954;BME280;26686;50.130;8.710;2022-10-16T13:40:18;100276.09;;;23.91;58.83
40954;BME280;26686;50.130;8.710;2022-10-16T13:45:21;100274.91;;;24.65;57.67
40954;BME280;26686;50.130;8.710;2022-10-16T13:50:23;100275.03;;;24.12;59.54
40954;BME280;26686;50.130;8.710;2022-10-16T13:55:24;100277.97;;;23.50;62.85
40954;BME280;26686;50.130;8.710;2022-10-16T14:00:28;100273.88;;;22.99;62.94
40954;BME280;26686;50.130;8.710;2022-10-16T14:05:34;100264.59;;;22.67;64.77
40954;BME280;26686;50.130;8.710;2022-10-16T14:10:35;100260.63;;;22.28;66.75
40954;BME280;26686;50.130;8.710;2022-10-16T14:15:37;100261.72;;;21.98;68.29
40954;BME280;26686;50.130;8.710;2022-10-16T14:20:38;100255.50;;;21.76;70.34
40954;BME280;26686;50.130;8.710;2022-10-16T14:25:40;100264.69;;;21.53;71.18
40954;BME280;26686;50.130;8.710;2022-10-16T14:30:54;100284.41;;;21.47;72.56
40954;BME280;26686;50.130;8.710;2022-10-16T14:36:05;100286.34;;;21.32;73.05
40954;BME280;26686;50.130;8.710;2022-10-16T14:41:07;100282.88;;;21.38;72.84
40954;BME280;26686;50.130;8.710;2022-10-16T14:46:14;100287.69;;;21.43;72.96
40954;BME280;26686;50.130;8.710;2022-10-16T14:51:18;100292.53;;;21.47;73.05
40954;BME280;26686;50.130;8.710;2022-10-16T14:56:24;100299.16;;;21.45;73.90
40954;BME280;26686;50.130;8.710;2022-10-16T15:01:26;100286.06;;;21.27;74.20
40954;BME280;26686;50.130;8.710;2022-10-16T15:06:27;100287.88;;;21.19;74.40
40954;BME280;26686;50.130;8.710;2022-10-16T15:11:30;100288.63;;;21.13;75.69
40954;BME280;26686;50.130;8.710;2022-10-16T15:16:33;100287.63;;;21.14;75.53
40954;BME280;26686;50.130;8.710;2022-10-16T15:21:34;100280.91;;;21.10;75.84
40954;BME280;26686;50.130;8.710;2022-10-16T15:26:36;100293.81;;;21.08;76.21
40954;BME280;26686;50.130;8.710;2022-10-16T15:31:37;100287.91;;;21.05;76.35
40954;BME280;26686;50.130;8.710;2022-10-16T15:36:39;100290.69;;;20.90;78.36
40954;BME280;26686;50.130;8.710;2022-10-16T15:41:40;100291.81;;;20.80;78.56
40954;BME280;26686;50.130;8.710;2022-10-16T15:46:42;100303.00;;;20.77;79.11
40954;BME280;26686;50.130;8.710;2022-10-16T15:51:44;100307.31;;;20.72;79.23
40954;BME280;26686;50.130;8.710;2022-10-16T15:56:47;100304.88;;;20.62;80.10
40954;BME280;26686;50.130;8.710;2022-10-16T16:01:48;100313.09;;;20.54;80.36
40954;BME280;26686;50.130;8.710;2022-10-16T16:06:49;100313.44;;;20.51;81.42
40954;BME280;26686;50.130;8.710;2022-10-16T16:11:51;100312.25;;;20.53;81.98
40954;BME280;26686;50.130;8.710;2022-10-16T16:16:54;100308.41;;;20.47;83.21
40954;BME280;26686;50.130;8.710;2022-10-16T16:21:55;100305.06;;;20.45;82.86
40954;BME280;26686;50.130;8.710;2022-10-16T16:26:57;100307.22;;;20.35;83.13
40954;BME280;26686;50.130;8.710;2022-10-16T16:31:59;100316.53;;;20.33;84.09
40954;BME280;26686;50.130;8.710;2022-10-16T16:37:00;100322.47;;;20.28;84.90
40954;BME280;26686;50.130;8.710;2022-10-16T16:42:02;100323.41;;;20.20;85.53
40954;BME280;26686;50.130;8.710;2022-10-16T16:47:05;100315.59;;;20.10;86.42
40954;BME280;26686;50.130;8.710;2022-10-16T16:52:07;100331.31;;;20.07;87.06
40954;BME280;26686;50.130;8.710;2022-10-16T16:57:08;100332.41;;;19.98;87.74
40954;BME280;26686;50.130;8.710;2022-10-16T17:02:10;100339.88;;;19.95;88.49
40954;BME280;26686;50.130;8.710;2022-10-16T17:07:11;100345.16;;;19.89;88.53
40954;BME280;26686;50.130;8.710;2022-10-16T17:12:12;100344.25;;;19.73;90.22
40954;BME280;26686;50.130;8.710;2022-10-16T17:17:14;100355.22;;;19.72;90.76
40954;BME280;26686;50.130;8.710;2022-10-16T17:22:15;100356.13;;;19.64;91.62
40954;BME280;26686;50.130;8.710;2022-10-16T17:27:18;100357.84;;;19.65;92.07
40954;BME280;26686;50.130;8.710;2022-10-16T17:32:19;100357.34;;;19.61;91.91
40954;BME280;26686;50.130;8.710;2022-10-16T17:37:21;100358.53;;;19.59;92.42
40954;BME280;26686;50.130;8.710;2022-10-16T17:42:23;100370.53;;;19.56;92.92
40954;BME280;26686;50.130;8.710;2022-10-16T17:47:25;100378.22;;;19.45;93.96
40954;BME280;26686;50.130;8.710;2022-10-16T17:52:26;100374.06;;;19.34;94.94
40954;BME280;26686;50.130;8.710;2022-10-16T17:57:27;100369.25;;;19.21;95.84
40954;BME280;26686;50.130;8.710;2022-10-16T18:02:29;100376.00;;;19.17;96.33
40954;BME280;26686;50.130;8.710;2022-10-16T18:07:31;100375.22;;;19.08;96.93
40954;BME280;26686;50.130;8.710;2022-10-16T18:12:32;100387.50;;;19.11;96.74
40954;BME280;26686;50.130;8.710;2022-10-16T18:17:34;100388.09;;;18.98;97.73
40954;BME280;26686;50.130;8.710;2022-10-16T18:22:38;100392.31;;;18.92;98.65
40954;BME280;26686;50.130;8.710;2022-10-16T18:27:39;100395.53;;;18.87;99.08
40954;BME280;26686;50.130;8.710;2022-10-16T18:32:41;100382.56;;;18.75;100.00
40954;BME280;26686;50.130;8.710;2022-10-16T18:37:42;100400.25;;;18.69;100.00
40954;BME280;26686;50.130;8.710;2022-10-16T18:42:46;100404.81;;;18.68;100.00
40954;BME280;26686;50.130;8.710;2022-10-16T18:47:50;100405.69;;;18.61;100.00
40954;BME280;26686;50.130;8.710;2022-10-16T18:52:51;100410.41;;;18.59;100.00
40954;BME280;26686;50.130;8.710;2022-10-16T18:57:52;100420.00;;;18.61;100.00
40954;BME280;26686;50.130;8.710;2022-10-16T19:02:55;100409.06;;;18.54;100.00
40954;BME280;26686;50.130;8.710;2022-10-16T19:07:56;100416.66;;;18.51;100.00
40954;BME280;26686;50.130;8.710;2022-10-16T19:12:58;100414.28;;;18.48;100.00
40954;BME280;26686;50.130;8.710;2022-10-16T19:18:00;100416.69;;;18.43;100.00
40954;BME280;26686;50.130;8.710;2022-10-16T19:23:01;100413.31;;;18.32;100.00
40954;BME280;26686;50.130;8.710;2022-10-16T19:28:05;100420.06;;;18.28;100.00
40954;BME280;26686;50.130;8.710;2022-10-16T19:33:08;100414.84;;;18.18;100.00
40954;BME280;26686;50.130;8.710;2022-10-16T19:38:09;100415.38;;;18.14;100.00
40954;BME280;26686;50.130;8.710;2022-10-16T19:43:10;100414.00;;;18.10;100.00
40954;BME280;26686;50.130;8.710;2022-10-16T19:48:12;100411.31;;;18.10;100.00
40954;BME280;26686;50.130;8.710;2022-10-16T19:53:13;100421.94;;;18.03;100.00
40954;BME280;26686;50.130;8.710;2022-10-16T19:58:14;100435.22;;;18.05;100.00
40954;BME280;26686;50.130;8.710;2022-10-16T20:03:16;100431.53;;;17.97;100.00
40954;BME280;26686;50.130;8.710;2022-10-16T20:08:17;100453.72;;;17.99;100.00
40954;BME280;26686;50.130;8.710;2022-10-16T20:13:20;100451.38;;;17.96;100.00
40954;BME280;26686;50.130;8.710;2022-10-16T20:18:22;100443.97;;;17.90;100.00
40954;BME280;26686;50.130;8.710;2022-10-16T20:23:23;100457.91;;;17.85;100.00
40954;BME280;26686;50.130;8.710;2022-10-16T20:28:25;100454.72;;;17.82;100.00
40954;BME280;26686;50.130;8.710;2022-10-16T20:33:26;100453.19;;;17.79;100.00
40954;BME280;26686;50.130;8.710;2022-10-16T20:38:27;100457.69;;;17.79;100.00
40954;BME280;26686;50.130;8.710;2022-10-16T20:43:29;100459.22;;;17.73;100.00
40954;BME280;26686;50.130;8.710;2022-10-16T20:48:31;100461.72;;;17.66;100.00
40954;BME280;26686;50.130;8.710;2022-10-16T20:53:32;100472.66;;;17.65;100.00
40954;BME280;26686;50.130;8.710;2022-10-16T20:58:38;100468.75;;;17.59;100.00
40954;BME280;26686;50.130;8.710;2022-10-16T21:03:41;100470.94;;;17.56;100.00
40954;BME280;26686;50.130;8.710;2022-10-16T21:08:42;100474.81;;;17.53;100.00
40954;BME280;26686;50.130;8.710;2022-10-16T21:13:44;100480.19;;;17.53;100.00
40954;BME280;26686;50.130;8.710;2022-10-16T21:18:46;100471.44;;;17.51;100.00
40954;BME280;26686;50.130;8.710;2022-10-16T21:23:48;100473.44;;;17.41;100.00
40954;BME280;26686;50.130;8.710;2022-10-16T21:28:55;100474.75;;;17.37;100.00
40954;BME280;26686;50.130;8.710;2022-10-16T21:33:57;100468.38;;;17.38;100.00
40954;BME280;26686;50.130;8.710;2022-10-16T21:39:01;100462.97;;;17.29;100.00
40954;BME280;26686;50.130;8.710;2022-10-16T21:44:03;100465.66;;;17.29;100.00
40954;BME280;26686;50.130;8.710;2022-10-16T21:49:09;100477.03;;;17.23;100.00
40954;BME280;26686;50.130;8.710;2022-10-16T21:54:14;100476.38;;;17.21;100.00
40954;BME280;26686;50.130;8.710;2022-10-16T21:59:15;100471.66;;;17.15;100.00
40954;BME280;26686;50.130;8.710;2022-10-16T22:04:17;100472.97;;;17.11;100.00
40954;BME280;26686;50.130;8.710;2022-10-16T22:09:18;100472.63;;;17.06;100.00
40954;BME280;26686;50.130;8.710;2022-10-16T22:14:20;100468.38;;;17.03;100.00
40954;BME280;26686;50.130;8.710;2022-10-16T22:19:22;100468.38;;;17.03;100.00
40954;BME280;26686;50.130;8.710;2022-10-16T22:24:23;100470.56;;;17.00;100.00
40954;BME280;26686;50.130;8.710;2022-10-16T22:29:24;100467.50;;;16.94;100.00
40954;BME280;26686;50.130;8.710;2022-10-16T22:34:26;100468.16;;;16.88;100.00
40954;BME280;26686;50.130;8.710;2022-10-16T22:39:29;100482.97;;;16.92;100.00
40954;BME280;26686;50.130;8.710;2022-10-16T22:44:30;100475.38;;;16.88;100.00
40954;BME280;26686;50.130;8.710;2022-10-16T22:49:31;100487.50;;;16.92;100.00
40954;BME280;26686;50.130;8.710;2022-10-16T22:54:33;100484.28;;;16.88;100.00
40954;BME280;26686;50.130;8.710;2022-10-16T22:59:34;100500.25;;;16.90;100.00
40954;BME280;26686;50.130;8.710;2022-10-16T23:04:35;100509.31;;;16.89;100.00
40954;BME280;26686;50.130;8.710;2022-10-16T23:09:36;100514.78;;;16.79;100.00
40954;BME280;26686;50.130;8.710;2022-10-16T23:14:38;100513.38;;;16.75;100.00
40954;BME280;26686;50.130;8.710;2022-10-16T23:19:39;100522.31;;;16.75;100.00
40954;BME280;26686;50.130;8.710;2022-10-16T23:24:41;100516.56;;;16.70;100.00
40954;BME280;26686;50.130;8.710;2022-10-16T23:29:42;100520.34;;;16.59;100.00
40954;BME280;26686;50.130;8.710;2022-10-16T23:34:45;100522.34;;;16.57;100.00
40954;BME280;26686;50.130;8.710;2022-10-16T23:39:46;100532.78;;;16.60;100.00
40954;BME280;26686;50.130;8.710;2022-10-16T23:44:47;100533.94;;;16.58;100.00
40954;BME280;26686;50.130;8.710;2022-10-16T23:49:49;100542.84;;;16.58;100.00
40954;BME280;26686;50.130;8.710;2022-10-16T23:54:50;100546.00;;;16.54;100.00
40954;BME280;26686;50.130;8.710;2022-10-16T23:59:51;100538.03;;;16.44;100.00
